Herat Airport


Codes: OAHR/HEA
Name: Herat Airport
City:
Country: Afghanistan
Elevation: 3206 ft.
Wikipedia:

Photos at Herat Airport


   Photos courtesy of SpottingLog. You can add your own sightings and photos by signing up for a free trial today.



No photos found.

Weather at Herat Airport


Time (UTC)DescriptionTempratureWindCloud coverageVisibilityPressureHumidity
26-Jun-2024 00:00Clear Sky23°C9 mph, E0%10000m1001hPa27%
26-Jun-2024 03:00Clear Sky24°C9 mph, NE0%10000m1001hPa25%
26-Jun-2024 06:00Clear Sky30°C11 mph, N0%10000m1000hPa19%
26-Jun-2024 09:00Clear Sky36°C11 mph, N0%10000m999hPa12%
26-Jun-2024 12:00Clear Sky37°C18 mph, N0%10000m997hPa11%
26-Jun-2024 15:00Clear Sky32°C16 mph, NE0%10000m999hPa15%
26-Jun-2024 18:00Clear Sky28°C7 mph, NE0%10000m1001hPa18%
26-Jun-2024 21:00Clear Sky27°C7 mph, E0%10000m1001hPa19%
27-Jun-2024 00:00Clear Sky25°C7 mph, E0%10000m1002hPa21%
27-Jun-2024 03:00Clear Sky29°C4 mph, NE0%10000m1003hPa17%
27-Jun-2024 06:00Clear Sky35°C4 mph, N2%10000m1002hPa13%
27-Jun-2024 09:00Clear Sky39°C9 mph, NW4%10000m1000hPa8%
27-Jun-2024 12:00Clear Sky40°C18 mph, N2%10000m999hPa8%
27-Jun-2024 15:00Clear Sky35°C16 mph, NE2%10000m1001hPa12%
27-Jun-2024 18:00Clear Sky33°C25 mph, NE1%10000m1004hPa15%
27-Jun-2024 21:00Clear Sky30°C20 mph, NE1%10000m1005hPa19%
28-Jun-2024 00:00Clear Sky25°C11 mph, NE1%10000m1006hPa35%
28-Jun-2024 03:00Clear Sky27°C11 mph, NE0%10000m1007hPa30%
28-Jun-2024 06:00Clear Sky33°C20 mph, NE0%10000m1005hPa21%
28-Jun-2024 09:00Clear Sky37°C25 mph, NE0%10000m1002hPa15%
28-Jun-2024 12:00Clear Sky37°C27 mph, NE0%10000m1001hPa13%
28-Jun-2024 15:00Clear Sky34°C27 mph, NE0%10000m1001hPa16%
28-Jun-2024 18:00Clear Sky30°C18 mph, NE0%10000m1002hPa21%
28-Jun-2024 21:00Clear Sky26°C4 mph, N0%10000m1002hPa29%
29-Jun-2024 00:00Clear Sky24°C7 mph, NE0%10000m1002hPa34%
29-Jun-2024 03:00Clear Sky28°C4 mph, N0%10000m1003hPa27%
29-Jun-2024 06:00Clear Sky35°C11 mph, N0%10000m1001hPa16%
29-Jun-2024 09:00Clear Sky38°C27 mph, N0%10000m999hPa14%
29-Jun-2024 12:00Clear Sky38°C29 mph, NE0%10000m999hPa13%
29-Jun-2024 15:00Clear Sky34°C29 mph, NE0%10000m1000hPa17%
29-Jun-2024 18:00Clear Sky31°C22 mph, NE0%10000m1002hPa19%
29-Jun-2024 21:00Clear Sky28°C16 mph, NE0%10000m1003hPa23%
30-Jun-2024 00:00Clear Sky24°C9 mph, NE0%10000m1004hPa29%
30-Jun-2024 03:00Clear Sky27°C11 mph, NE0%10000m1005hPa24%
30-Jun-2024 06:00Clear Sky33°C22 mph, NE0%10000m1003hPa17%
30-Jun-2024 09:00Clear Sky37°C27 mph, NE0%10000m1001hPa13%
30-Jun-2024 12:00Clear Sky36°C29 mph, NE0%10000m1001hPa15%
30-Jun-2024 15:00Clear Sky32°C25 mph, NE0%10000m1002hPa18%
30-Jun-2024 18:00Clear Sky29°C22 mph, NE0%10000m1003hPa21%
30-Jun-2024 21:00Clear Sky27°C18 mph, NE0%10000m1003hPa24%